createdAt,value
2022-10-23T00:02:29.701Z,28.60
2022-10-23T00:07:31.939Z,29.30
2022-10-23T00:12:34.038Z,28.60
2022-10-23T00:17:36.092Z,28.60
2022-10-23T00:22:39.017Z,28.60
2022-10-23T00:27:41.484Z,28.90
2022-10-23T00:32:43.761Z,28.90
2022-10-23T00:37:45.823Z,29.20
2022-10-23T00:42:48.180Z,29.10
2022-10-23T00:47:50.649Z,29.30
2022-10-23T00:52:56.030Z,29.30
2022-10-23T00:57:58.334Z,30.00
2022-10-23T01:03:00.553Z,29.40
2022-10-23T01:08:12.847Z,29.90
2022-10-23T01:13:39.604Z,29.40
2022-10-23T01:19:01.655Z,29.30
2022-10-23T01:24:10.519Z,29.10
2022-10-23T01:29:30.852Z,29.00
2022-10-23T01:34:46.935Z,29.60
2022-10-23T01:39:54.810Z,29.60
2022-10-23T01:45:06.706Z,29.70
2022-10-23T01:50:12.846Z,29.10
2022-10-23T01:55:17.612Z,29.10
2022-10-23T02:00:20.784Z,29.00
2022-10-23T02:05:28.308Z,29.70
2022-10-23T02:10:53.638Z,29.20
2022-10-23T02:16:20.300Z,29.30
2022-10-23T02:21:34.761Z,29.20
2022-10-23T02:26:42.191Z,29.80
2022-10-23T02:31:45.377Z,29.30
2022-10-23T02:36:47.510Z,29.30
2022-10-23T02:42:03.372Z,29.90
2022-10-23T02:47:26.142Z,29.50
2022-10-23T02:52:36.571Z,29.50
2022-10-23T02:57:48.872Z,29.40
2022-10-23T03:02:59.631Z,29.50
2022-10-23T03:08:08.069Z,30.00
2022-10-23T03:13:11.961Z,30.00
2022-10-23T03:18:14.960Z,29.60
2022-10-23T03:23:19.337Z,29.80
2022-10-23T03:28:23.444Z,30.00
2022-10-23T03:33:25.455Z,29.50
2022-10-23T03:38:27.549Z,30.00
2022-10-23T03:43:31.344Z,29.60
2022-10-23T03:48:33.401Z,29.50
2022-10-23T03:53:35.885Z,30.00
2022-10-23T03:58:38.043Z,29.70
2022-10-23T04:03:40.188Z,29.70
2022-10-23T04:08:45.500Z,29.70
2022-10-23T04:13:48.662Z,30.40
2022-10-23T04:18:51.294Z,29.80
2022-10-23T04:23:53.356Z,30.00
2022-10-23T04:28:55.537Z,30.00
2022-10-23T04:33:57.784Z,29.90
2022-10-23T04:44:03.264Z,30.00
2022-10-23T04:49:09.008Z,30.00
2022-10-23T04:54:15.449Z,30.50
2022-10-23T05:04:20.800Z,30.20
2022-10-23T05:14:30.041Z,30.40
2022-10-23T05:19:37.573Z,30.50
2022-10-23T05:24:40.184Z,30.40
2022-10-23T05:29:42.370Z,30.50
2022-10-23T05:34:44.656Z,30.80
2022-10-23T05:39:46.950Z,31.20
2022-10-23T05:44:49.500Z,31.10
2022-10-23T05:49:52.348Z,30.40
2022-10-23T05:54:55.747Z,31.10
2022-10-23T05:59:57.857Z,30.30
2022-10-23T06:05:05.431Z,30.30
2022-10-23T06:10:10.699Z,30.10
2022-10-23T06:15:14.016Z,31.70
2022-10-23T06:25:26.895Z,30.10
2022-10-23T06:30:31.703Z,30.70
2022-10-23T06:40:37.720Z,30.40
2022-10-23T06:45:40.549Z,30.50
2022-10-23T06:50:48.455Z,30.40
2022-10-23T06:55:55.333Z,31.10
2022-10-23T07:01:01.938Z,31.10
2022-10-23T07:06:06.423Z,31.60
2022-10-23T07:11:10.938Z,31.90
2022-10-23T07:16:20.767Z,31.90
2022-10-23T07:21:23.185Z,31.90
2022-10-23T07:26:28.686Z,32.40
2022-10-23T07:31:32.550Z,32.40
2022-10-23T07:36:44.100Z,32.50
2022-10-23T07:41:46.159Z,32.90
2022-10-23T07:46:48.269Z,32.80
2022-10-23T07:51:51.781Z,33.70
2022-10-23T07:56:54.564Z,33.50
2022-10-23T08:01:57.256Z,33.70
2022-10-23T08:07:01.076Z,33.90
2022-10-23T08:17:09.560Z,33.80
2022-10-23T08:22:16.307Z,34.20
2022-10-23T08:27:19.262Z,34.30
2022-10-23T08:32:22.473Z,34.40
2022-10-23T08:37:26.648Z,35.30
2022-10-23T08:42:29.238Z,34.40
2022-10-23T08:47:47.252Z,34.30
2022-10-23T08:53:19.868Z,34.20
2022-10-23T08:58:42.499Z,34.80
2022-10-23T09:03:44.546Z,33.40
2022-10-23T09:08:55.230Z,33.10
2022-10-23T09:14:33.090Z,33.10
2022-10-23T09:19:35.282Z,32.60
2022-10-23T09:24:37.412Z,33.50
2022-10-23T09:29:52.212Z,32.00
2022-10-23T09:34:55.567Z,31.30
2022-10-23T09:40:29.689Z,30.90
2022-10-23T09:45:35.391Z,30.00
2022-10-23T09:50:48.240Z,29.80
2022-10-23T09:55:55.942Z,30.00
2022-10-23T10:00:58.244Z,29.60
2022-10-23T10:06:24.135Z,29.50
2022-10-23T10:11:47.732Z,29.20
2022-10-23T10:17:05.491Z,29.00
2022-10-23T10:22:29.565Z,28.90
2022-10-23T10:27:52.743Z,28.60
2022-10-23T10:33:09.984Z,28.70
2022-10-23T10:38:34.250Z,28.70
2022-10-23T10:43:51.051Z,28.60
2022-10-23T10:54:38.548Z,28.70
2022-10-23T10:59:46.570Z,28.50
2022-10-23T11:10:04.397Z,27.80
2022-10-23T11:15:13.971Z,28.20
2022-10-23T11:20:15.975Z,27.70
2022-10-23T11:25:36.888Z,27.00
2022-10-23T11:31:15.588Z,27.10
2022-10-23T11:36:20.923Z,25.80
2022-10-23T11:41:29.494Z,25.50
2022-10-23T11:46:37.146Z,25.50
2022-10-23T11:51:40.963Z,25.10
2022-10-23T11:57:09.281Z,24.70
2022-10-23T12:02:28.295Z,24.90
2022-10-23T12:07:34.458Z,25.10
2022-10-23T12:12:42.404Z,23.60
2022-10-23T12:17:45.655Z,23.90
2022-10-23T12:23:06.040Z,23.00
2022-10-23T12:28:55.570Z,22.30
2022-10-23T12:34:14.335Z,22.80
2022-10-23T12:39:29.286Z,22.50
2022-10-23T12:44:31.874Z,21.90
2022-10-23T12:49:35.518Z,21.80
2022-10-23T12:54:40.550Z,21.70
2022-10-23T12:59:43.853Z,21.00
2022-10-23T13:04:47.564Z,20.80
2022-10-23T13:09:50.000Z,20.70
2022-10-23T13:15:03.331Z,20.30
2022-10-23T13:20:32.159Z,20.00
2022-10-23T13:25:36.715Z,19.80
2022-10-23T13:30:42.664Z,19.00
2022-10-23T13:35:56.301Z,18.90
2022-10-23T13:41:00.407Z,18.90
2022-10-23T13:46:02.681Z,18.50
2022-10-23T13:51:13.660Z,18.90
2022-10-23T13:56:18.065Z,18.90
2022-10-23T14:01:24.888Z,18.70
2022-10-23T14:06:27.018Z,19.40
2022-10-23T14:11:29.130Z,19.00
2022-10-23T14:16:31.356Z,19.60
2022-10-23T14:21:33.507Z,19.30
2022-10-23T14:26:35.655Z,19.40
2022-10-23T14:31:37.812Z,19.50
2022-10-23T14:36:49.776Z,19.50
2022-10-23T14:41:53.218Z,19.90
2022-10-23T14:46:55.374Z,20.20
2022-10-23T14:51:58.038Z,20.40
2022-10-23T14:57:00.133Z,20.50
2022-10-23T15:02:02.191Z,20.30
2022-10-23T15:07:04.259Z,21.10
2022-10-23T15:12:07.833Z,20.30
2022-10-23T15:17:15.449Z,20.90
2022-10-23T15:22:19.425Z,20.60
2022-10-23T15:27:21.478Z,21.20
2022-10-23T15:32:23.654Z,21.30
2022-10-23T15:37:26.078Z,21.30
2022-10-23T15:42:28.090Z,21.70
2022-10-23T15:47:30.170Z,21.60
2022-10-23T15:52:32.295Z,22.10
2022-10-23T15:57:34.664Z,22.20
2022-10-23T16:02:37.424Z,22.20
2022-10-23T16:07:39.734Z,22.70
2022-10-23T16:12:42.085Z,22.90
2022-10-23T16:17:44.763Z,23.30
2022-10-23T16:22:47.662Z,23.10
2022-10-23T16:27:49.794Z,23.60
2022-10-23T16:32:52.551Z,24.00
2022-10-23T16:37:54.669Z,25.00
2022-10-23T16:42:58.582Z,24.60
2022-10-23T16:48:01.692Z,24.80
2022-10-23T16:53:04.395Z,25.20
2022-10-23T16:58:06.415Z,25.50
2022-10-23T17:03:09.580Z,24.50
2022-10-23T17:08:11.623Z,26.00
2022-10-23T17:13:13.786Z,26.00
2022-10-23T17:18:15.940Z,26.50
2022-10-23T17:23:18.071Z,26.90
2022-10-23T17:28:20.202Z,26.10
2022-10-23T17:33:22.987Z,26.70
2022-10-23T17:38:25.084Z,27.90
2022-10-23T17:43:27.185Z,28.10
2022-10-23T17:48:29.374Z,28.80
2022-10-23T17:53:31.917Z,29.00
2022-10-23T17:58:34.484Z,28.60
2022-10-23T18:03:36.884Z,28.80
2022-10-23T18:08:40.636Z,28.40
2022-10-23T18:13:42.721Z,28.50
2022-10-23T18:18:48.128Z,28.70
2022-10-23T18:23:51.088Z,28.80
2022-10-23T18:28:59.046Z,29.00
2022-10-23T18:34:04.904Z,28.80
2022-10-23T18:39:09.612Z,28.90
2022-10-23T18:44:17.240Z,28.90
2022-10-23T18:49:20.301Z,29.00
2022-10-23T18:54:22.444Z,29.40
2022-10-23T18:59:24.617Z,29.10
2022-10-23T19:04:26.770Z,29.90
2022-10-23T19:09:28.897Z,29.50
2022-10-23T19:14:31.118Z,29.30
2022-10-23T19:19:43.387Z,29.60
2022-10-23T19:25:02.486Z,29.90
2022-10-23T19:30:08.782Z,30.00
2022-10-23T19:35:13.157Z,30.00
2022-10-23T19:40:15.930Z,31.00
2022-10-23T19:45:18.145Z,30.40
2022-10-23T19:50:21.257Z,30.30
2022-10-23T19:55:23.354Z,30.40
2022-10-23T20:00:28.015Z,30.10
2022-10-23T20:05:30.718Z,30.50
2022-10-23T20:10:32.836Z,30.70
2022-10-23T20:20:41.824Z,31.30
2022-10-23T20:25:44.040Z,31.40
2022-10-23T20:30:46.190Z,31.10
2022-10-23T20:35:48.514Z,31.50
2022-10-23T20:40:50.662Z,31.30
2022-10-23T20:45:53.030Z,32.30
2022-10-23T20:50:55.083Z,31.50
2022-10-23T20:55:57.188Z,31.60
2022-10-23T21:01:07.652Z,31.90
2022-10-23T21:06:13.782Z,31.80
2022-10-23T21:11:17.570Z,32.40
2022-10-23T21:16:26.083Z,32.20
2022-10-23T21:21:32.962Z,33.40
2022-10-23T21:26:35.203Z,32.70
2022-10-23T21:31:37.367Z,32.80
2022-10-23T21:36:53.877Z,32.90
2022-10-23T21:42:01.612Z,32.90
2022-10-23T21:47:03.806Z,32.90
2022-10-23T21:52:06.419Z,33.00
2022-10-23T21:57:12.559Z,32.80
2022-10-23T22:02:15.056Z,32.90
2022-10-23T22:07:17.634Z,33.60
2022-10-23T22:12:19.741Z,32.70
2022-10-23T22:17:21.918Z,32.50
2022-10-23T22:22:24.083Z,33.40
2022-10-23T22:27:26.220Z,32.50
2022-10-23T22:37:30.974Z,32.30
2022-10-23T22:42:33.156Z,32.20
2022-10-23T22:47:35.595Z,33.10
2022-10-23T22:52:37.677Z,32.90
2022-10-23T22:57:39.789Z,32.90
2022-10-23T23:02:41.929Z,32.50
2022-10-23T23:07:44.230Z,33.40
2022-10-23T23:12:46.494Z,33.60
2022-10-23T23:17:48.587Z,33.40
2022-10-23T23:22:50.701Z,32.30
2022-10-23T23:27:52.803Z,32.30
2022-10-23T23:32:54.907Z,32.30
2022-10-23T23:42:59.741Z,32.60
2022-10-23T23:48:01.864Z,33.90
2022-10-23T23:53:04.003Z,32.50
2022-10-23T23:58:06.137Z,33.10
